Time;durP1;ratioP1;P1;durP2;ratioP2;P2;SDS_P1;SDS_P2;PMS_P1;PMS_P2;Temp;Humidity;BMP_temperature;BMP_pressure;BME280_temperature;BME280_humidity;BME280_pressure;Samples;Min_cycle;Max_cycle;Signal;HPM_P1;HPM_P2
2023/04/06 00:00:48;;;;;;;15.63;7.07;;;;;;;;;;5114401;27;20064;-63
2023/04/06 00:03:15;;;;;;;15.55;7.88;;;;;;;;;;5111738;28;20039;-69
2023/04/06 00:05:41;;;;;;;14.15;7.60;;;;;;;;;;5114097;28;20514;-69
2023/04/06 00:08:06;;;;;;;15.15;7.68;;;;;;;;;;5114230;28;20026;-66
2023/04/06 00:10:32;;;;;;;14.98;7.88;;;;;;;;;;5113985;28;20011;-67
2023/04/06 00:12:59;;;;;;;15.93;7.13;;;;;;;;;;5114310;28;20018;-70
2023/04/06 00:15:24;;;;;;;13.80;6.10;;;;;;;;;;5114941;28;20028;-70
2023/04/06 00:17:50;;;;;;;10.25;6.03;;;;;;;;;;5115033;28;20073;-69
2023/04/06 00:20:16;;;;;;;9.70;5.13;;;;;;;;;;5115030;28;20108;-62
2023/04/06 00:22:42;;;;;;;12.52;6.25;;;;;;;;;;5114952;28;20024;-71
2023/04/06 00:25:08;;;;;;;10.73;6.32;;;;;;;;;;5114809;28;20016;-67
2023/04/06 00:27:33;;;;;;;9.68;4.68;;;;;;;;;;5114964;28;20063;-66
2023/04/06 00:29:58;;;;;;;14.05;6.55;;;;;;;;;;5113809;28;20027;-73
2023/04/06 00:32:24;;;;;;;10.48;6.43;;;;;;;;;;5114932;28;20015;-66
2023/04/06 00:34:49;;;;;;;11.40;6.28;;;;;;;;;;5114704;28;20027;-73
2023/04/06 00:37:15;;;;;;;14.57;6.25;;;;;;;;;;5114825;28;20031;-74
2023/04/06 00:39:40;;;;;;;12.43;7.10;;;;;;;;;;5114511;28;20020;-74
2023/04/06 00:42:14;;;;;;;14.02;8.00;;;;;;;;;;5114811;27;20035;-74
2023/04/06 00:44:43;;;;;;;13.35;6.63;;;;;;;;;;5114727;28;20016;-66
2023/04/06 00:47:09;;;;;;;15.80;7.20;;;;;;;;;;5113243;27;20382;-73
2023/04/06 00:49:34;;;;;;;13.15;6.78;;;;;;;;;;5114254;28;20030;-74
2023/04/06 00:52:01;;;;;;;13.48;6.82;;;;;;;;;;5113799;28;20031;-72
2023/04/06 00:54:27;;;;;;;14.55;7.45;;;;;;;;;;5113578;28;20401;-72
2023/04/06 00:56:52;;;;;;;16.00;8.00;;;;;;;;;;5112492;28;20035;-74
2023/04/06 00:59:18;;;;;;;15.18;7.43;;;;;;;;;;5113529;28;20069;-74
2023/04/06 01:01:43;;;;;;;13.23;7.13;;;;;;;;;;5113611;28;20367;-62
2023/04/06 01:04:09;;;;;;;14.80;7.70;;;;;;;;;;5113502;28;20040;-63
2023/04/06 01:06:34;;;;;;;13.88;7.32;;;;;;;;;;5113443;28;20028;-64
2023/04/06 01:09:00;;;;;;;17.10;7.72;;;;;;;;;;5113276;28;20047;-70
2023/04/06 01:11:26;;;;;;;11.50;6.53;;;;;;;;;;5113564;28;20534;-69
2023/04/06 01:13:52;;;;;;;13.75;7.32;;;;;;;;;;5113373;28;20390;-72
2023/04/06 01:16:17;;;;;;;13.57;7.07;;;;;;;;;;5113278;27;20076;-71
2023/04/06 01:18:43;;;;;;;14.85;7.20;;;;;;;;;;5113269;28;20023;-72
2023/04/06 01:21:14;;;;;;;12.82;7.03;;;;;;;;;;5112941;28;20016;-72
2023/04/06 01:23:40;;;;;;;10.35;6.30;;;;;;;;;;5113281;28;20066;-74
2023/04/06 01:26:05;;;;;;;13.55;7.43;;;;;;;;;;5112984;28;20058;-74
2023/04/06 01:28:31;;;;;;;13.60;7.20;;;;;;;;;;5113038;28;20040;-72
2023/04/06 01:30:56;;;;;;;13.98;7.03;;;;;;;;;;5113041;28;20027;-74
2023/04/06 01:33:21;;;;;;;14.35;7.35;;;;;;;;;;5113049;28;20024;-65
2023/04/06 01:35:47;;;;;;;14.50;7.90;;;;;;;;;;5112830;28;20020;-62
2023/04/06 01:38:12;;;;;;;15.10;7.38;;;;;;;;;;5112999;28;20050;-63
2023/04/06 01:40:38;;;;;;;15.07;7.20;;;;;;;;;;5112953;28;20485;-63
2023/04/06 01:43:03;;;;;;;17.80;7.97;;;;;;;;;;5112544;28;20386;-63
2023/04/06 01:45:29;;;;;;;13.57;7.20;;;;;;;;;;5112856;28;20486;-63
2023/04/06 01:47:54;;;;;;;28.88;12.25;;;;;;;;;;5112784;28;20035;-63
2023/04/06 01:50:20;;;;;;;22.98;10.13;;;;;;;;;;5112576;28;20525;-74
2023/04/06 01:52:45;;;;;;;21.33;11.05;;;;;;;;;;5112710;28;20026;-72
2023/04/06 01:55:11;;;;;;;22.08;10.77;;;;;;;;;;5112692;28;20031;-73
2023/04/06 01:57:36;;;;;;;23.60;11.50;;;;;;;;;;5112351;28;20466;-66
2023/04/06 02:00:02;;;;;;;24.85;12.20;;;;;;;;;;5112710;28;20020;-74
2023/04/06 02:02:27;;;;;;;18.98;10.25;;;;;;;;;;5112574;28;20106;-71
2023/04/06 02:04:53;;;;;;;17.35;9.05;;;;;;;;;;5112080;28;20461;-74
2023/04/06 02:07:18;;;;;;;22.13;9.85;;;;;;;;;;5112372;28;20028;-68
2023/04/06 02:09:44;;;;;;;29.40;13.77;;;;;;;;;;5112360;28;20106;-65
2023/04/06 02:12:09;;;;;;;28.65;13.65;;;;;;;;;;5112315;27;20080;-66
2023/04/06 02:14:35;;;;;;;31.42;14.02;;;;;;;;;;5112276;28;20023;-65
2023/04/06 02:17:00;;;;;;;40.10;14.95;;;;;;;;;;5112245;28;20030;-64
2023/04/06 02:19:26;;;;;;;42.13;14.32;;;;;;;;;;5112044;28;20138;-65
2023/04/06 02:21:51;;;;;;;27.77;10.95;;;;;;;;;;5112266;28;20076;-66
2023/04/06 02:24:16;;;;;;;30.40;11.27;;;;;;;;;;5112155;28;20034;-63
2023/04/06 02:26:42;;;;;;;38.38;13.30;;;;;;;;;;5112384;28;20034;-64
2023/04/06 02:29:07;;;;;;;36.30;13.05;;;;;;;;;;5112065;28;20039;-69
2023/04/06 02:31:33;;;;;;;29.75;11.18;;;;;;;;;;5112115;28;20016;-74
2023/04/06 02:33:58;;;;;;;29.05;10.20;;;;;;;;;;5111857;28;20031;-69
2023/04/06 02:36:24;;;;;;;29.67;11.15;;;;;;;;;;5112114;28;20424;-64
2023/04/06 02:38:50;;;;;;;24.08;9.00;;;;;;;;;;5112129;28;20473;-65
2023/04/06 02:41:15;;;;;;;27.45;10.23;;;;;;;;;;5112008;28;20459;-68
2023/04/06 02:43:40;;;;;;;19.17;9.65;;;;;;;;;;5111919;28;20024;-74
2023/04/06 02:46:06;;;;;;;17.65;7.55;;;;;;;;;;5112074;28;20051;-70
2023/04/06 02:48:31;;;;;;;15.95;6.30;;;;;;;;;;5111713;28;20115;-63
2023/04/06 02:50:57;;;;;;;15.52;8.10;;;;;;;;;;5111978;28;20051;-63
2023/04/06 02:53:22;;;;;;;16.08;7.78;;;;;;;;;;5112613;28;20038;-65
2023/04/06 02:55:47;;;;;;;11.65;7.22;;;;;;;;;;5116148;28;20023;-66
2023/04/06 02:58:13;;;;;;;12.40;6.82;;;;;;;;;;5115714;28;20034;-68
2023/04/06 03:00:38;;;;;;;11.90;6.55;;;;;;;;;;5116233;28;20047;-65
2023/04/06 03:03:04;;;;;;;15.63;8.13;;;;;;;;;;5115773;28;20020;-75
2023/04/06 03:05:30;;;;;;;22.50;10.15;;;;;;;;;;5115871;28;20044;-74
2023/04/06 03:07:55;;;;;;;24.58;8.85;;;;;;;;;;5115781;28;20063;-64
2023/04/06 03:10:21;;;;;;;17.20;8.40;;;;;;;;;;5116208;28;20100;-71
2023/04/06 03:12:46;;;;;;;18.38;8.45;;;;;;;;;;5116514;28;20058;-73
2023/04/06 03:15:12;;;;;;;23.38;9.88;;;;;;;;;;5116300;28;20065;-66
2023/04/06 03:17:37;;;;;;;22.70;9.90;;;;;;;;;;5116211;28;20035;-75
2023/04/06 03:20:03;;;;;;;30.63;11.80;;;;;;;;;;5116288;27;20020;-75
2023/04/06 03:22:29;;;;;;;35.35;11.95;;;;;;;;;;5116257;28;20594;-75
2023/04/06 03:24:55;;;;;;;36.75;11.80;;;;;;;;;;5116152;28;20024;-75
2023/04/06 03:27:21;;;;;;;23.83;10.13;;;;;;;;;;5116098;28;20074;-73
2023/04/06 03:29:47;;;;;;;25.15;10.23;;;;;;;;;;5114198;28;20039;-66
2023/04/06 03:32:12;;;;;;;25.55;10.85;;;;;;;;;;5115252;28;20028;-63
2023/04/06 03:34:39;;;;;;;37.47;12.32;;;;;;;;;;5115400;28;20076;-74
2023/04/06 03:37:05;;;;;;;31.33;12.27;;;;;;;;;;5115295;28;20023;-72
2023/04/06 03:39:30;;;;;;;26.83;10.52;;;;;;;;;;5115386;28;20482;-74
2023/04/06 03:41:56;;;;;;;28.23;11.00;;;;;;;;;;5115244;28;20431;-66
2023/04/06 03:44:21;;;;;;;20.40;9.77;;;;;;;;;;5115269;28;20466;-65
2023/04/06 03:46:46;;;;;;;27.60;11.90;;;;;;;;;;5115079;28;20028;-66
2023/04/06 03:49:12;;;;;;;22.77;9.68;;;;;;;;;;5114848;28;20042;-63
2023/04/06 03:51:37;;;;;;;19.25;8.30;;;;;;;;;;5115229;27;20023;-63
2023/04/06 03:54:03;;;;;;;22.08;8.70;;;;;;;;;;5114982;28;20406;-70
2023/04/06 03:56:28;;;;;;;18.48;8.85;;;;;;;;;;5115003;28;20043;-75
2023/04/06 03:58:54;;;;;;;20.38;8.68;;;;;;;;;;5114738;28;20478;-67
2023/04/06 04:01:19;;;;;;;18.17;8.20;;;;;;;;;;5114689;27;20026;-73
2023/04/06 04:03:45;;;;;;;15.73;8.05;;;;;;;;;;5114829;28;20027;-66
2023/04/06 04:06:10;;;;;;;17.10;8.70;;;;;;;;;;5114583;28;20371;-67
2023/04/06 04:08:36;;;;;;;13.07;7.22;;;;;;;;;;5114837;28;20092;-70
2023/04/06 04:11:01;;;;;;;17.67;7.95;;;;;;;;;;5115378;28;20020;-69
2023/04/06 04:13:27;;;;;;;16.48;8.30;;;;;;;;;;5113972;28;20069;-70
2023/04/06 04:15:52;;;;;;;22.33;8.65;;;;;;;;;;5114965;28;20020;-63
2023/04/06 04:18:18;;;;;;;14.65;7.60;;;;;;;;;;5115284;28;20174;-64
2023/04/06 04:20:44;;;;;;;15.50;7.18;;;;;;;;;;5115159;28;20078;-63
2023/04/06 04:23:10;;;;;;;17.60;7.93;;;;;;;;;;5114986;28;20047;-63
2023/04/06 04:25:35;;;;;;;11.10;6.63;;;;;;;;;;5115056;28;20474;-70
2023/04/06 04:28:01;;;;;;;15.52;7.65;;;;;;;;;;5114589;28;20470;-63
2023/04/06 04:30:27;;;;;;;16.63;8.02;;;;;;;;;;5114694;28;20024;-68
2023/04/06 04:32:52;;;;;;;13.50;7.45;;;;;;;;;;5114892;28;20090;-64
2023/04/06 04:35:17;;;;;;;13.88;7.57;;;;;;;;;;5114721;28;20047;-63
2023/04/06 04:37:43;;;;;;;14.35;7.00;;;;;;;;;;5114812;28;20092;-73
2023/04/06 04:40:09;;;;;;;10.25;5.47;;;;;;;;;;5114714;28;20460;-75
2023/04/06 04:42:35;;;;;;;16.45;7.47;;;;;;;;;;5114595;28;20031;-64
2023/04/06 04:45:00;;;;;;;12.93;6.97;;;;;;;;;;5114363;28;20064;-69
2023/04/06 04:47:26;;;;;;;16.63;6.88;;;;;;;;;;5114441;28;20111;-65
2023/04/06 04:49:51;;;;;;;9.13;5.28;;;;;;;;;;5114450;28;20020;-65
2023/04/06 04:52:16;;;;;;;9.65;5.65;;;;;;;;;;5114575;28;20019;-71
2023/04/06 04:54:42;;;;;;;11.70;5.85;;;;;;;;;;5114289;28;20030;-72
2023/04/06 04:57:07;;;;;;;11.93;5.70;;;;;;;;;;5114305;28;20030;-63
2023/04/06 04:59:34;;;;;;;8.43;5.13;;;;;;;;;;5114156;28;20027;-65
2023/04/06 05:02:00;;;;;;;12.43;5.93;;;;;;;;;;5114274;27;20031;-64
2023/04/06 05:04:26;;;;;;;11.55;6.53;;;;;;;;;;5113977;27;20044;-72
2023/04/06 05:07:02;;;;;;;19.95;6.85;;;;;;;;;;5114283;28;20043;-64
2023/04/06 05:09:30;;;;;;;12.95;6.70;;;;;;;;;;5114011;28;20051;-67
2023/04/06 05:11:55;;;;;;;15.68;7.47;;;;;;;;;;5114145;28;20037;-66
2023/04/06 05:14:21;;;;;;;11.18;5.57;;;;;;;;;;5113830;28;20106;-70
2023/04/06 05:16:46;;;;;;;15.95;6.80;;;;;;;;;;5113462;28;20481;-66
2023/04/06 05:19:12;;;;;;;13.02;6.13;;;;;;;;;;5113982;28;20043;-65
2023/04/06 05:21:37;;;;;;;16.98;7.00;;;;;;;;;;5113965;28;20027;-66
2023/04/06 05:24:03;;;;;;;10.48;5.05;;;;;;;;;;5113888;28;20080;-65
2023/04/06 05:26:28;;;;;;;14.50;6.55;;;;;;;;;;5113692;28;20028;-72
2023/04/06 05:28:54;;;;;;;13.15;6.93;;;;;;;;;;5113385;28;20130;-72
2023/04/06 05:31:20;;;;;;;10.20;6.13;;;;;;;;;;5113774;28;20473;-75
2023/04/06 05:33:45;;;;;;;14.52;6.63;;;;;;;;;;5113795;28;20108;-73
2023/04/06 05:36:11;;;;;;;10.50;5.25;;;;;;;;;;5113543;28;20149;-64
2023/04/06 05:38:37;;;;;;;12.93;6.22;;;;;;;;;;5113489;27;20027;-63
2023/04/06 05:41:02;;;;;;;9.90;5.57;;;;;;;;;;5113563;28;20367;-65
2023/04/06 05:43:28;;;;;;;14.38;6.63;;;;;;;;;;5112892;28;20028;-63
2023/04/06 05:45:53;;;;;;;10.48;5.53;;;;;;;;;;5113407;28;20032;-64
2023/04/06 05:48:19;;;;;;;11.68;5.75;;;;;;;;;;5113315;28;20028;-74
2023/04/06 05:50:49;;;;;;;9.82;5.20;;;;;;;;;;5113388;28;20055;-63
2023/04/06 05:53:15;;;;;;;;;;;;;;;;;;5113457;28;20056;-73
2023/04/06 05:55:41;;;;;;;12.25;5.50;;;;;;;;;;5113309;27;19911;-63
2023/04/06 05:58:06;;;;;;;14.50;6.78;;;;;;;;;;5112804;28;20026;-63
2023/04/06 06:00:32;;;;;;;12.75;6.18;;;;;;;;;;5113109;28;20030;-64
2023/04/06 06:02:57;;;;;;;12.13;6.28;;;;;;;;;;5113273;28;20019;-67
2023/04/06 06:05:23;;;;;;;13.60;6.47;;;;;;;;;;5112905;28;20047;-63
2023/04/06 06:07:48;;;;;;;12.70;5.68;;;;;;;;;;5112939;28;20039;-65
2023/04/06 06:10:14;;;;;;;12.23;6.07;;;;;;;;;;5113057;28;20471;-67
2023/04/06 06:12:39;;;;;;;16.48;6.78;;;;;;;;;;5112710;28;20477;-63
2023/04/06 06:15:06;;;;;;;11.60;6.03;;;;;;;;;;5112992;28;20023;-67
2023/04/06 06:17:31;;;;;;;7.80;3.88;;;;;;;;;;5112994;28;20023;-68
2023/04/06 06:19:56;;;;;;;9.52;4.07;;;;;;;;;;5112865;28;20024;-69
2023/04/06 06:22:22;;;;;;;12.45;6.78;;;;;;;;;;5112784;27;20035;-73
2023/04/06 06:24:47;;;;;;;12.98;6.10;;;;;;;;;;5112821;28;20019;-63
2023/04/06 06:27:13;;;;;;;12.60;6.47;;;;;;;;;;5112363;28;20419;-64
2023/04/06 06:29:38;;;;;;;9.98;5.85;;;;;;;;;;5111942;28;20072;-64
2023/04/06 06:32:04;;;;;;;13.82;5.88;;;;;;;;;;5112815;28;20023;-69
2023/04/06 06:34:29;;;;;;;14.85;6.68;;;;;;;;;;5112614;28;20096;-71
2023/04/06 06:36:55;;;;;;;16.77;5.47;;;;;;;;;;5112693;28;20028;-73
2023/04/06 06:39:21;;;;;;;14.00;6.40;;;;;;;;;;5112615;28;20023;-70
2023/04/06 06:41:46;;;;;;;12.35;6.60;;;;;;;;;;5112168;28;20034;-68
2023/04/06 06:44:12;;;;;;;12.27;5.97;;;;;;;;;;5112658;28;20074;-64
2023/04/06 06:46:37;;;;;;;12.48;5.88;;;;;;;;;;5112520;28;20423;-64
2023/04/06 06:49:03;;;;;;;12.82;6.22;;;;;;;;;;5112467;28;20024;-65
2023/04/06 06:51:28;;;;;;;9.65;5.43;;;;;;;;;;5107620;28;20429;-66
2023/04/06 06:53:54;;;;;;;11.52;5.82;;;;;;;;;;5109550;28;20023;-64
2023/04/06 06:56:19;;;;;;;14.90;6.13;;;;;;;;;;5108975;28;20034;-67
2023/04/06 06:58:45;;;;;;;10.88;5.95;;;;;;;;;;5108573;28;20050;-63
2023/04/06 07:01:11;;;;;;;11.32;5.50;;;;;;;;;;5108888;28;20038;-64
2023/04/06 07:03:36;;;;;;;11.15;6.25;;;;;;;;;;5097884;28;20028;-67
2023/04/06 07:06:02;;;;;;;11.57;6.30;;;;;;;;;;5108847;28;20044;-67
2023/04/06 07:08:27;;;;;;;12.15;6.10;;;;;;;;;;5102099;28;20028;-70
2023/04/06 07:10:53;;;;;;;11.32;6.93;;;;;;;;;;5091737;28;20152;-72
2023/04/06 07:13:22;;;;;;;12.80;6.40;;;;;;;;;;5101580;28;20104;-64
2023/04/06 07:15:48;;;;;;;9.85;6.05;;;;;;;;;;5112312;28;20036;-66
2023/04/06 07:18:14;;;;;;;12.82;6.15;;;;;;;;;;5112266;28;20144;-65
2023/04/06 07:20:39;;;;;;;11.10;6.55;;;;;;;;;;5112322;28;20477;-64
2023/04/06 07:23:05;;;;;;;13.60;6.60;;;;;;;;;;5112231;28;20059;-64
2023/04/06 07:25:30;;;;;;;14.43;6.53;;;;;;;;;;5110235;28;20375;-70
2023/04/06 07:27:56;;;;;;;10.10;6.20;;;;;;;;;;5111530;28;20024;-67
2023/04/06 07:30:22;;;;;;;11.45;6.38;;;;;;;;;;5112006;28;20028;-64
2023/04/06 07:32:48;;;;;;;11.90;6.28;;;;;;;;;;5112127;28;20034;-73
2023/04/06 07:35:15;;;;;;;18.48;6.95;;;;;;;;;;5103080;28;20058;-67
2023/04/06 07:37:40;;;;;;;10.80;6.25;;;;;;;;;;5108387;28;20023;-65
2023/04/06 07:40:06;;;;;;;13.00;6.97;;;;;;;;;;5113494;28;20462;-66
2023/04/06 07:42:32;;;;;;;12.48;6.55;;;;;;;;;;5115220;28;20035;-63
2023/04/06 07:44:58;;;;;;;10.35;6.30;;;;;;;;;;5112052;28;20066;-63
2023/04/06 07:47:24;;;;;;;12.50;6.40;;;;;;;;;;5114984;28;20486;-65
2023/04/06 07:49:49;;;;;;;15.45;7.07;;;;;;;;;;5114256;28;20379;-68
2023/04/06 07:52:15;;;;;;;15.00;7.07;;;;;;;;;;5115073;28;20367;-66
2023/04/06 07:54:41;;;;;;;13.70;6.85;;;;;;;;;;5114445;28;20028;-71
2023/04/06 07:57:07;;;;;;;11.57;7.07;;;;;;;;;;5114744;28;20111;-75
2023/04/06 07:59:32;;;;;;;11.55;6.63;;;;;;;;;;5113981;28;20505;-74
2023/04/06 08:01:57;;;;;;;10.52;6.88;;;;;;;;;;5114056;28;20160;-73
2023/04/06 08:04:23;;;;;;;10.88;6.78;;;;;;;;;;5113656;27;20043;-66
2023/04/06 08:06:48;;;;;;;14.45;7.20;;;;;;;;;;5113992;28;20020;-73
2023/04/06 08:09:14;;;;;;;10.20;6.10;;;;;;;;;;5113190;28;20382;-74
2023/04/06 08:11:40;;;;;;;11.55;6.82;;;;;;;;;;5114012;28;20023;-71
2023/04/06 08:14:05;;;;;;;11.23;6.13;;;;;;;;;;5115089;28;20024;-75
2023/04/06 08:16:31;;;;;;;11.93;7.10;;;;;;;;;;5115103;28;20038;-72
2023/04/06 08:18:56;;;;;;;16.05;6.90;;;;;;;;;;5115151;28;20024;-74
2023/04/06 08:21:22;;;;;;;11.73;6.93;;;;;;;;;;5115225;28;20055;-75
2023/04/06 08:23:47;;;;;;;14.88;5.93;;;;;;;;;;5114734;28;20027;-72
2023/04/06 08:26:13;;;;;;;11.30;6.38;;;;;;;;;;5115080;28;20024;-75
2023/04/06 08:28:38;;;;;;;11.25;5.85;;;;;;;;;;5114876;28;20031;-73
2023/04/06 08:31:05;;;;;;;9.07;5.63;;;;;;;;;;5114957;28;20028;-73
2023/04/06 08:33:31;;;;;;;12.35;6.57;;;;;;;;;;5114841;28;20019;-72
2023/04/06 08:35:56;;;;;;;10.27;6.35;;;;;;;;;;5114661;28;20035;-70
2023/04/06 08:38:22;;;;;;;14.05;6.07;;;;;;;;;;5110984;27;20122;-68
2023/04/06 08:40:50;;;;;;;9.77;5.38;;;;;;;;;;5107722;28;20402;-62
2023/04/06 08:43:18;;;;;;;10.98;5.40;;;;;;;;;;5111255;28;20032;-65
2023/04/06 08:45:44;;;;;;;12.88;5.53;;;;;;;;;;5098085;28;20425;-65
2023/04/06 08:48:11;;;;;;;10.77;5.70;;;;;;;;;;5110121;28;20535;-66
2023/04/06 08:50:38;;;;;;;8.73;5.45;;;;;;;;;;5112434;28;20040;-75
2023/04/06 08:53:05;;;;;;;10.07;5.90;;;;;;;;;;5112784;28;20020;-74
2023/04/06 08:55:31;;;;;;;9.93;5.47;;;;;;;;;;5114465;28;20024;-74
2023/04/06 08:57:57;;;;;;;8.40;4.20;;;;;;;;;;5113979;28;20027;-76
2023/04/06 09:00:23;;;;;;;9.70;4.47;;;;;;;;;;5114223;27;20046;-73
2023/04/06 09:02:49;;;;;;;10.38;5.00;;;;;;;;;;5114177;28;20470;-70
2023/04/06 09:05:15;;;;;;;12.13;4.75;;;;;;;;;;5113836;28;20139;-72
2023/04/06 09:07:41;;;;;;;7.50;4.20;;;;;;;;;;5113699;28;20486;-75
2023/04/06 09:10:07;;;;;;;6.80;3.72;;;;;;;;;;5114126;28;20031;-72
2023/04/06 09:12:33;;;;;;;6.55;3.88;;;;;;;;;;5114054;28;20023;-65
2023/04/06 09:14:59;;;;;;;6.25;3.90;;;;;;;;;;5114046;28;20427;-64
2023/04/06 09:17:32;;;;;;;5.90;3.63;;;;;;;;;;5112453;28;20517;-64
2023/04/06 09:19:58;;;;;;;7.60;4.13;;;;;;;;;;5113391;28;20027;-68
2023/04/06 09:22:25;;;;;;;8.07;4.78;;;;;;;;;;5113772;28;20074;-68
2023/04/06 09:24:52;;;;;;;10.73;4.13;;;;;;;;;;5113823;28;20102;-65
2023/04/06 09:27:30;;;;;;;5.63;3.30;;;;;;;;;;5113685;28;20020;-64
2023/04/06 09:30:07;;;;;;;6.30;3.35;;;;;;;;;;5093247;28;20065;-65
2023/04/06 09:32:32;;;;;;;5.18;3.65;;;;;;;;;;5093159;28;20429;-71
2023/04/06 09:35:08;;;;;;;9.07;4.30;;;;;;;;;;5093147;28;20024;-69
2023/04/06 09:37:34;;;;;;;7.05;4.40;;;;;;;;;;5113513;28;20027;-64
2023/04/06 09:40:05;;;;;;;8.98;4.03;;;;;;;;;;5113513;28;20077;-66
2023/04/06 09:42:30;;;;;;;6.05;3.08;;;;;;;;;;5113320;28;20031;-65
2023/04/06 09:44:56;;;;;;;6.13;3.75;;;;;;;;;;5113586;28;20031;-64
2023/04/06 09:47:23;;;;;;;6.82;3.40;;;;;;;;;;5112116;28;20038;-69
2023/04/06 09:49:50;;;;;;;6.10;3.60;;;;;;;;;;5111626;28;20140;-66
2023/04/06 09:52:17;;;;;;;7.53;4.13;;;;;;;;;;5113383;28;20110;-71
2023/04/06 09:54:45;;;;;;;6.55;3.85;;;;;;;;;;5113290;28;20121;-66
2023/04/06 09:57:16;;;;;;;9.68;3.50;;;;;;;;;;5113044;28;20032;-68
2023/04/06 09:59:50;;;;;;;7.57;3.97;;;;;;;;;;5113193;28;20073;-67
2023/04/06 10:02:25;;;;;;;5.32;3.38;;;;;;;;;;5112841;28;20019;-71
2023/04/06 10:04:56;;;;;;;7.88;4.47;;;;;;;;;;5112728;28;20478;-64
2023/04/06 10:07:22;;;;;;;6.50;3.88;;;;;;;;;;5112808;28;20047;-64
2023/04/06 10:09:49;;;;;;;7.88;4.38;;;;;;;;;;5112567;28;20116;-64
2023/04/06 10:12:15;;;;;;;6.88;4.57;;;;;;;;;;5112713;27;20065;-64
2023/04/06 10:14:41;;;;;;;7.70;4.40;;;;;;;;;;5112582;28;20367;-69
2023/04/06 10:17:06;;;;;;;7.07;4.32;;;;;;;;;;5113063;28;20027;-71
2023/04/06 10:19:46;;;;;;;7.15;3.83;;;;;;;;;;5112896;28;20062;-67
2023/04/06 10:22:26;;;;;;;7.53;3.80;;;;;;;;;;5112933;28;20420;-71
2023/04/06 10:24:51;;;;;;;5.85;3.70;;;;;;;;;;5112964;28;20100;-73
2023/04/06 10:27:27;;;;;;;8.20;4.25;;;;;;;;;;5112757;28;20020;-73
2023/04/06 10:29:52;;;;;;;9.88;5.05;;;;;;;;;;5112752;28;20027;-66
2023/04/06 10:32:18;;;;;;;6.28;3.90;;;;;;;;;;5112301;28;20435;-72
2023/04/06 10:34:43;;;;;;;6.35;4.20;;;;;;;;;;5112685;28;20047;-73
2023/04/06 10:37:16;;;;;;;7.45;4.45;;;;;;;;;;5112606;28;20457;-64
2023/04/06 10:39:55;;;;;;;6.93;4.72;;;;;;;;;;5112364;28;20436;-73
2023/04/06 10:42:25;;;;;;;11.38;4.93;;;;;;;;;;5112418;28;20486;-75
2023/04/06 10:44:50;;;;;;;6.63;3.90;;;;;;;;;;5112647;28;20059;-74
2023/04/06 10:47:20;;;;;;;5.50;3.42;;;;;;;;;;5112295;28;20027;-74
2023/04/06 10:49:45;;;;;;;6.00;3.77;;;;;;;;;;5112450;28;20028;-68
2023/04/06 10:52:12;;;;;;;5.47;3.80;;;;;;;;;;5112408;28;20359;-66
2023/04/06 10:54:43;;;;;;;7.63;3.80;;;;;;;;;;5112314;28;20051;-64
2023/04/06 10:57:09;;;;;;;8.48;3.92;;;;;;;;;;5112148;28;20089;-73
2023/04/06 10:59:35;;;;;;;6.57;3.85;;;;;;;;;;5112424;28;20466;-74
2023/04/06 11:02:00;;;;;;;8.20;3.72;;;;;;;;;;5112330;28;20020;-68
2023/04/06 11:04:25;;;;;;;6.68;3.55;;;;;;;;;;5110615;28;20052;-69
2023/04/06 11:06:51;;;;;;;7.75;3.80;;;;;;;;;;5112239;28;20050;-65
2023/04/06 11:09:27;;;;;;;5.75;3.90;;;;;;;;;;5112328;28;20374;-75
2023/04/06 11:11:53;;;;;;;7.00;3.65;;;;;;;;;;5112063;28;20030;-71
2023/04/06 11:14:19;;;;;;;6.20;3.70;;;;;;;;;;5112485;28;20023;-74
2023/04/06 11:16:48;;;;;;;5.13;3.25;;;;;;;;;;5116246;28;20486;-74
2023/04/06 11:19:13;;;;;;;7.65;3.90;;;;;;;;;;5116136;28;20065;-74
2023/04/06 11:21:49;;;;;;;5.72;3.88;;;;;;;;;;5116099;28;20031;-75
2023/04/06 11:24:15;;;;;;;6.00;3.45;;;;;;;;;;5115999;28;20474;-76
2023/04/06 11:26:51;;;;;;;5.43;3.45;;;;;;;;;;5115951;27;20216;-70
2023/04/06 11:29:21;;;;;;;9.70;3.92;;;;;;;;;;5114660;28;20354;-74
2023/04/06 11:31:51;;;;;;;7.20;3.63;;;;;;;;;;5115687;28;20031;-72
2023/04/06 11:34:17;;;;;;;6.82;3.42;;;;;;;;;;5115792;28;20032;-68
2023/04/06 11:36:44;;;;;;;5.28;3.20;;;;;;;;;;5115911;28;20028;-68
2023/04/06 11:39:10;;;;;;;5.90;3.03;;;;;;;;;;5115920;28;20131;-64
2023/04/06 11:41:36;;;;;;;6.00;3.00;;;;;;;;;;5115654;28;20347;-64
2023/04/06 11:44:02;;;;;;;6.13;3.15;;;;;;;;;;5115916;28;20088;-64
2023/04/06 11:46:28;;;;;;;4.63;3.00;;;;;;;;;;5115452;28;20024;-72
2023/04/06 11:48:58;;;;;;;6.80;2.80;;;;;;;;;;5115628;27;20033;-64
2023/04/06 11:51:24;;;;;;;5.38;2.92;;;;;;;;;;5115590;28;20386;-63
2023/04/06 11:53:49;;;;;;;5.93;3.05;;;;;;;;;;5115464;28;20100;-66
2023/04/06 11:56:29;;;;;;;4.80;3.13;;;;;;;;;;5116140;28;20068;-75
2023/04/06 11:58:56;;;;;;;5.22;3.67;;;;;;;;;;5115348;28;20386;-68
2023/04/06 12:01:23;;;;;;;5.15;3.38;;;;;;;;;;5115395;28;20027;-65
2023/04/06 12:03:49;;;;;;;7.95;4.40;;;;;;;;;;5115468;28;20474;-74
2023/04/06 12:06:15;;;;;;;9.02;4.63;;;;;;;;;;5115096;28;20046;-66
2023/04/06 12:08:40;;;;;;;9.75;4.60;;;;;;;;;;5115117;27;20036;-64
2023/04/06 12:11:06;;;;;;;9.80;4.07;;;;;;;;;;5115370;28;20383;-64
2023/04/06 12:13:31;;;;;;;9.18;4.63;;;;;;;;;;5115289;28;20489;-66
2023/04/06 12:15:57;;;;;;;12.80;4.30;;;;;;;;;;5114975;28;20120;-67
2023/04/06 12:18:22;;;;;;;7.75;4.10;;;;;;;;;;5114847;27;20059;-66
2023/04/06 12:20:48;;;;;;;4.82;3.33;;;;;;;;;;5114986;28;20322;-67
2023/04/06 12:23:13;;;;;;;5.22;3.15;;;;;;;;;;5115365;28;20472;-65
2023/04/06 12:25:40;;;;;;;7.53;3.92;;;;;;;;;;5114683;28;20107;-67
2023/04/06 12:28:06;;;;;;;7.13;4.30;;;;;;;;;;5114606;28;20531;-65
2023/04/06 12:30:32;;;;;;;7.25;4.53;;;;;;;;;;5114527;28;20036;-67
2023/04/06 12:32:57;;;;;;;10.60;4.43;;;;;;;;;;5115084;28;20022;-66
2023/04/06 12:35:23;;;;;;;7.32;4.57;;;;;;;;;;5114654;28;20062;-63
2023/04/06 12:37:48;;;;;;;10.50;4.50;;;;;;;;;;5114675;27;20111;-63
2023/04/06 12:40:14;;;;;;;7.13;4.30;;;;;;;;;;5114647;28;20019;-69
2023/04/06 12:42:43;;;;;;;7.50;4.05;;;;;;;;;;5114186;28;20062;-72
2023/04/06 12:45:09;;;;;;;7.65;4.28;;;;;;;;;;5114206;28;20063;-70
2023/04/06 12:47:36;;;;;;;8.27;4.50;;;;;;;;;;5114391;28;20027;-67
2023/04/06 12:50:01;;;;;;;8.90;4.60;;;;;;;;;;5114432;28;20038;-66
2023/04/06 12:52:30;;;;;;;7.68;5.22;;;;;;;;;;5113666;28;20519;-64
2023/04/06 12:54:55;;;;;;;8.57;4.53;;;;;;;;;;5113249;28;20110;-70
2023/04/06 12:57:21;;;;;;;7.40;4.25;;;;;;;;;;5112889;28;20107;-69
2023/04/06 12:59:47;;;;;;;9.60;4.88;;;;;;;;;;5113110;28;20016;-70
2023/04/06 13:02:12;;;;;;;8.73;5.07;;;;;;;;;;5111850;28;20027;-68
2023/04/06 13:04:38;;;;;;;7.05;3.83;;;;;;;;;;5112699;28;20485;-74
2023/04/06 13:07:03;;;;;;;7.15;3.80;;;;;;;;;;5113152;28;20050;-73
2023/04/06 13:09:29;;;;;;;7.30;4.25;;;;;;;;;;5113105;28;20020;-71
2023/04/06 13:11:55;;;;;;;10.20;3.90;;;;;;;;;;5112870;28;20166;-73
2023/04/06 13:14:20;;;;;;;10.75;4.10;;;;;;;;;;5113023;28;20106;-74
2023/04/06 13:16:46;;;;;;;4.75;3.20;;;;;;;;;;5113135;28;20099;-72
2023/04/06 13:19:11;;;;;;;6.35;3.55;;;;;;;;;;5112912;28;20497;-69
2023/04/06 13:21:37;;;;;;;6.22;3.42;;;;;;;;;;5112676;28;20028;-64
2023/04/06 13:24:04;;;;;;;5.65;3.30;;;;;;;;;;5111443;28;20022;-71
2023/04/06 13:26:30;;;;;;;10.25;3.75;;;;;;;;;;5112526;28;20035;-70
2023/04/06 13:28:56;;;;;;;7.43;3.65;;;;;;;;;;5111431;28;20448;-72
2023/04/06 13:31:22;;;;;;;7.03;3.60;;;;;;;;;;5112727;28;20369;-73
2023/04/06 13:33:47;;;;;;;5.47;3.70;;;;;;;;;;5112304;28;20040;-74
2023/04/06 13:36:13;;;;;;;17.65;4.50;;;;;;;;;;5112655;28;20531;-72
2023/04/06 13:38:38;;;;;;;7.10;3.85;;;;;;;;;;5112102;28;20038;-73
2023/04/06 13:41:05;;;;;;;6.82;3.90;;;;;;;;;;5112233;28;20023;-71
2023/04/06 13:43:30;;;;;;;6.30;3.40;;;;;;;;;;5112208;28;20073;-73
2023/04/06 13:45:59;;;;;;;6.25;3.90;;;;;;;;;;5112264;28;20039;-73
2023/04/06 13:48:25;;;;;;;5.57;3.85;;;;;;;;;;5111625;28;20088;-73
2023/04/06 13:50:51;;;;;;;6.45;4.10;;;;;;;;;;5105532;28;20115;-64
2023/04/06 13:53:17;;;;;;;10.68;5.05;;;;;;;;;;5108225;28;20103;-72
2023/04/06 13:55:42;;;;;;;8.50;4.70;;;;;;;;;;5112654;28;20106;-66
2023/04/06 13:58:08;;;;;;;8.77;5.18;;;;;;;;;;5112525;28;20036;-63
2023/04/06 14:00:34;;;;;;;13.95;5.47;;;;;;;;;;5112419;28;20024;-64
2023/04/06 14:02:59;;;;;;;7.63;3.78;;;;;;;;;;5112852;27;20030;-64
2023/04/06 14:05:27;;;;;;;8.32;4.40;;;;;;;;;;5133448;27;20413;-66
2023/04/06 14:07:54;;;;;;;7.85;4.07;;;;;;;;;;5133212;27;20027;-73
2023/04/06 14:10:23;;;;;;;8.23;4.93;;;;;;;;;;5126391;27;20028;-65
2023/04/06 14:12:49;;;;;;;10.13;4.53;;;;;;;;;;5113156;28;20026;-73
2023/04/06 14:15:15;;;;;;;6.10;4.22;;;;;;;;;;5112873;28;20098;-74
2023/04/06 14:17:40;;;;;;;6.32;4.13;;;;;;;;;;5112806;28;20031;-71
2023/04/06 14:20:07;;;;;;;6.75;4.03;;;;;;;;;;5112518;28;20161;-69
2023/04/06 14:22:32;;;;;;;7.95;4.38;;;;;;;;;;5112854;27;20023;-66
2023/04/06 14:24:58;;;;;;;13.15;7.60;;;;;;;;;;5112446;28;20404;-63
2023/04/06 14:27:24;;;;;;;17.73;9.23;;;;;;;;;;5112670;28;20042;-65